sensor_id;sensor_type;location;lat;lon;timestamp;P1;durP1;ratioP1;P2;durP2;ratioP2
55330;SDS011;58851;42.984;20.336;2023-05-29T00:00:13;59.78;;;35.88;;
55330;SDS011;58851;42.984;20.336;2023-05-29T00:02:41;67.53;;;40.25;;
55330;SDS011;58851;42.984;20.336;2023-05-29T00:05:09;47.92;;;25.98;;
55330;SDS011;58851;42.984;20.336;2023-05-29T00:07:39;25.02;;;17.67;;
55330;SDS011;58851;42.984;20.336;2023-05-29T00:10:06;20.92;;;14.05;;
55330;SDS011;58851;42.984;20.336;2023-05-29T00:12:33;31.95;;;19.48;;
55330;SDS011;58851;42.984;20.336;2023-05-29T00:14:59;41.10;;;23.00;;
55330;SDS011;58851;42.984;20.336;2023-05-29T00:17:24;28.30;;;17.63;;
55330;SDS011;58851;42.984;20.336;2023-05-29T00:19:50;22.10;;;15.23;;
55330;SDS011;58851;42.984;20.336;2023-05-29T00:22:16;34.33;;;22.05;;
55330;SDS011;58851;42.984;20.336;2023-05-29T00:24:42;18.52;;;13.73;;
55330;SDS011;58851;42.984;20.336;2023-05-29T00:27:09;26.85;;;15.38;;
55330;SDS011;58851;42.984;20.336;2023-05-29T00:29:36;17.02;;;12.77;;
55330;SDS011;58851;42.984;20.336;2023-05-29T00:32:03;19.13;;;12.30;;
55330;SDS011;58851;42.984;20.336;2023-05-29T00:34:30;17.80;;;11.68;;
55330;SDS011;58851;42.984;20.336;2023-05-29T00:36:56;13.30;;;9.63;;
55330;SDS011;58851;42.984;20.336;2023-05-29T00:39:24;15.05;;;10.00;;
55330;SDS011;58851;42.984;20.336;2023-05-29T00:41:49;15.07;;;11.30;;
55330;SDS011;58851;42.984;20.336;2023-05-29T00:44:19;31.95;;;19.17;;
55330;SDS011;58851;42.984;20.336;2023-05-29T00:46:46;23.63;;;16.90;;
55330;SDS011;58851;42.984;20.336;2023-05-29T00:49:14;37.70;;;23.75;;
55330;SDS011;58851;42.984;20.336;2023-05-29T00:51:41;30.35;;;22.00;;
55330;SDS011;58851;42.984;20.336;2023-05-29T00:54:09;24.05;;;15.20;;
55330;SDS011;58851;42.984;20.336;2023-05-29T00:56:41;21.63;;;14.45;;
55330;SDS011;58851;42.984;20.336;2023-05-29T00:59:12;22.38;;;16.98;;
55330;SDS011;58851;42.984;20.336;2023-05-29T01:01:38;19.98;;;11.70;;
55330;SDS011;58851;42.984;20.336;2023-05-29T01:04:05;15.52;;;10.52;;
55330;SDS011;58851;42.984;20.336;2023-05-29T01:06:32;12.75;;;9.65;;
55330;SDS011;58851;42.984;20.336;2023-05-29T01:08:58;17.48;;;10.60;;
55330;SDS011;58851;42.984;20.336;2023-05-29T01:13:57;13.85;;;9.95;;
55330;SDS011;58851;42.984;20.336;2023-05-29T01:16:48;18.58;;;12.80;;
55330;SDS011;58851;42.984;20.336;2023-05-29T01:28:22;16.30;;;10.75;;
55330;SDS011;58851;42.984;20.336;2023-05-29T01:30:51;27.88;;;11.38;;
55330;SDS011;58851;42.984;20.336;2023-05-29T01:33:19;15.10;;;9.60;;
55330;SDS011;58851;42.984;20.336;2023-05-29T01:35:45;12.98;;;9.23;;
55330;SDS011;58851;42.984;20.336;2023-05-29T01:38:11;13.73;;;9.13;;
55330;SDS011;58851;42.984;20.336;2023-05-29T01:40:37;11.73;;;8.23;;
55330;SDS011;58851;42.984;20.336;2023-05-29T01:43:03;13.38;;;8.60;;
55330;SDS011;58851;42.984;20.336;2023-05-29T01:45:29;14.25;;;8.88;;
55330;SDS011;58851;42.984;20.336;2023-05-29T01:47:55;18.60;;;9.50;;
55330;SDS011;58851;42.984;20.336;2023-05-29T01:50:22;12.10;;;8.82;;
55330;SDS011;58851;42.984;20.336;2023-05-29T01:52:50;13.32;;;9.13;;
55330;SDS011;58851;42.984;20.336;2023-05-29T01:55:15;14.45;;;11.00;;
55330;SDS011;58851;42.984;20.336;2023-05-29T01:57:41;18.05;;;10.95;;
55330;SDS011;58851;42.984;20.336;2023-05-29T02:00:08;15.77;;;10.63;;
55330;SDS011;58851;42.984;20.336;2023-05-29T02:02:38;13.82;;;10.15;;
55330;SDS011;58851;42.984;20.336;2023-05-29T02:05:05;19.60;;;11.52;;
55330;SDS011;58851;42.984;20.336;2023-05-29T02:07:32;16.55;;;11.07;;
55330;SDS011;58851;42.984;20.336;2023-05-29T02:09:59;14.80;;;10.90;;
55330;SDS011;58851;42.984;20.336;2023-05-29T02:12:25;16.85;;;11.38;;
55330;SDS011;58851;42.984;20.336;2023-05-29T02:14:51;20.40;;;13.25;;
55330;SDS011;58851;42.984;20.336;2023-05-29T02:17:17;19.40;;;12.85;;
55330;SDS011;58851;42.984;20.336;2023-05-29T02:19:44;21.45;;;13.50;;
55330;SDS011;58851;42.984;20.336;2023-05-29T02:22:09;21.45;;;12.40;;
55330;SDS011;58851;42.984;20.336;2023-05-29T02:24:37;21.60;;;12.50;;
55330;SDS011;58851;42.984;20.336;2023-05-29T02:27:03;20.70;;;13.32;;
55330;SDS011;58851;42.984;20.336;2023-05-29T02:29:29;26.20;;;14.05;;
55330;SDS011;58851;42.984;20.336;2023-05-29T02:31:55;20.55;;;13.23;;
55330;SDS011;58851;42.984;20.336;2023-05-29T02:34:21;20.80;;;14.20;;
55330;SDS011;58851;42.984;20.336;2023-05-29T02:36:50;26.60;;;15.52;;
55330;SDS011;58851;42.984;20.336;2023-05-29T02:39:19;24.10;;;15.18;;
55330;SDS011;58851;42.984;20.336;2023-05-29T02:41:46;20.60;;;12.73;;
55330;SDS011;58851;42.984;20.336;2023-05-29T02:44:11;20.45;;;13.05;;
55330;SDS011;58851;42.984;20.336;2023-05-29T02:46:37;21.92;;;13.98;;
55330;SDS011;58851;42.984;20.336;2023-05-29T02:49:03;17.50;;;12.32;;
55330;SDS011;58851;42.984;20.336;2023-05-29T02:51:29;22.77;;;14.07;;
55330;SDS011;58851;42.984;20.336;2023-05-29T02:53:55;23.10;;;14.05;;
55330;SDS011;58851;42.984;20.336;2023-05-29T02:56:21;23.15;;;14.75;;
55330;SDS011;58851;42.984;20.336;2023-05-29T02:58:52;28.17;;;15.15;;
55330;SDS011;58851;42.984;20.336;2023-05-29T03:01:18;24.88;;;15.20;;
55330;SDS011;58851;42.984;20.336;2023-05-29T03:03:44;21.75;;;13.95;;
55330;SDS011;58851;42.984;20.336;2023-05-29T03:06:10;21.33;;;12.85;;
55330;SDS011;58851;42.984;20.336;2023-05-29T03:08:37;22.90;;;13.20;;
55330;SDS011;58851;42.984;20.336;2023-05-29T03:11:09;16.23;;;11.57;;
55330;SDS011;58851;42.984;20.336;2023-05-29T03:13:38;17.17;;;12.35;;
55330;SDS011;58851;42.984;20.336;2023-05-29T03:16:05;18.05;;;11.98;;
55330;SDS011;58851;42.984;20.336;2023-05-29T03:18:33;19.80;;;12.13;;
55330;SDS011;58851;42.984;20.336;2023-05-29T03:20:59;21.05;;;13.07;;
55330;SDS011;58851;42.984;20.336;2023-05-29T03:23:26;19.83;;;12.63;;
55330;SDS011;58851;42.984;20.336;2023-05-29T03:25:52;22.65;;;12.90;;
55330;SDS011;58851;42.984;20.336;2023-05-29T03:28:18;21.80;;;12.60;;
55330;SDS011;58851;42.984;20.336;2023-05-29T03:30:44;25.30;;;14.60;;
55330;SDS011;58851;42.984;20.336;2023-05-29T03:33:09;25.42;;;15.23;;
55330;SDS011;58851;42.984;20.336;2023-05-29T03:35:35;24.33;;;16.30;;
55330;SDS011;58851;42.984;20.336;2023-05-29T03:38:01;30.95;;;16.92;;
55330;SDS011;58851;42.984;20.336;2023-05-29T03:40:27;28.00;;;17.67;;
55330;SDS011;58851;42.984;20.336;2023-05-29T03:42:52;29.33;;;17.05;;
55330;SDS011;58851;42.984;20.336;2023-05-29T03:45:18;21.35;;;14.73;;
55330;SDS011;58851;42.984;20.336;2023-05-29T03:47:44;25.77;;;16.20;;
55330;SDS011;58851;42.984;20.336;2023-05-29T03:50:10;22.27;;;12.90;;
55330;SDS011;58851;42.984;20.336;2023-05-29T03:52:39;18.27;;;12.95;;
55330;SDS011;58851;42.984;20.336;2023-05-29T03:55:07;18.27;;;14.07;;
55330;SDS011;58851;42.984;20.336;2023-05-29T03:57:34;20.70;;;14.38;;
55330;SDS011;58851;42.984;20.336;2023-05-29T04:00:00;22.48;;;17.00;;
55330;SDS011;58851;42.984;20.336;2023-05-29T04:02:26;23.98;;;14.40;;
55330;SDS011;58851;42.984;20.336;2023-05-29T04:04:52;20.60;;;13.80;;
55330;SDS011;58851;42.984;20.336;2023-05-29T04:07:18;24.63;;;14.27;;
55330;SDS011;58851;42.984;20.336;2023-05-29T04:09:45;37.83;;;18.48;;
55330;SDS011;58851;42.984;20.336;2023-05-29T04:12:11;25.27;;;15.65;;
55330;SDS011;58851;42.984;20.336;2023-05-29T04:14:38;21.27;;;14.85;;
55330;SDS011;58851;42.984;20.336;2023-05-29T04:17:04;24.75;;;15.45;;
55330;SDS011;58851;42.984;20.336;2023-05-29T04:19:30;20.02;;;14.55;;
55330;SDS011;58851;42.984;20.336;2023-05-29T04:21:55;19.30;;;15.20;;
55330;SDS011;58851;42.984;20.336;2023-05-29T04:24:21;19.88;;;13.38;;
55330;SDS011;58851;42.984;20.336;2023-05-29T04:26:47;20.67;;;15.52;;
55330;SDS011;58851;42.984;20.336;2023-05-29T04:29:13;23.85;;;15.00;;
55330;SDS011;58851;42.984;20.336;2023-05-29T04:31:38;17.65;;;12.45;;
55330;SDS011;58851;42.984;20.336;2023-05-29T04:34:05;20.27;;;12.02;;
55330;SDS011;58851;42.984;20.336;2023-05-29T04:36:31;19.33;;;11.80;;
55330;SDS011;58851;42.984;20.336;2023-05-29T04:39:04;14.68;;;11.82;;
55330;SDS011;58851;42.984;20.336;2023-05-29T04:41:30;18.05;;;12.65;;
55330;SDS011;58851;42.984;20.336;2023-05-29T04:43:56;18.75;;;12.68;;
55330;SDS011;58851;42.984;20.336;2023-05-29T04:46:25;17.55;;;13.10;;
55330;SDS011;58851;42.984;20.336;2023-05-29T04:48:51;17.42;;;12.27;;
55330;SDS011;58851;42.984;20.336;2023-05-29T04:51:21;16.17;;;13.60;;
55330;SDS011;58851;42.984;20.336;2023-05-29T04:53:47;17.55;;;12.10;;
55330;SDS011;58851;42.984;20.336;2023-05-29T04:56:16;16.70;;;10.07;;
55330;SDS011;58851;42.984;20.336;2023-05-29T04:58:43;17.20;;;10.40;;
55330;SDS011;58851;42.984;20.336;2023-05-29T05:01:09;17.70;;;11.57;;
55330;SDS011;58851;42.984;20.336;2023-05-29T05:03:39;18.17;;;11.95;;
55330;SDS011;58851;42.984;20.336;2023-05-29T05:06:05;20.92;;;14.63;;
55330;SDS011;58851;42.984;20.336;2023-05-29T05:08:32;14.00;;;11.23;;
55330;SDS011;58851;42.984;20.336;2023-05-29T05:10:59;17.10;;;12.05;;
55330;SDS011;58851;42.984;20.336;2023-05-29T05:13:25;16.33;;;11.27;;
55330;SDS011;58851;42.984;20.336;2023-05-29T05:15:52;23.85;;;12.25;;
55330;SDS011;58851;42.984;20.336;2023-05-29T05:18:18;20.23;;;11.90;;
55330;SDS011;58851;42.984;20.336;2023-05-29T05:20:44;19.10;;;15.13;;
55330;SDS011;58851;42.984;20.336;2023-05-29T05:23:10;23.85;;;16.20;;
55330;SDS011;58851;42.984;20.336;2023-05-29T05:25:36;22.63;;;14.95;;
55330;SDS011;58851;42.984;20.336;2023-05-29T05:28:03;18.80;;;14.70;;
55330;SDS011;58851;42.984;20.336;2023-05-29T05:30:30;17.20;;;12.63;;
55330;SDS011;58851;42.984;20.336;2023-05-29T05:32:56;18.60;;;12.38;;
55330;SDS011;58851;42.984;20.336;2023-05-29T05:35:22;18.92;;;12.13;;
55330;SDS011;58851;42.984;20.336;2023-05-29T05:37:48;17.90;;;11.43;;
55330;SDS011;58851;42.984;20.336;2023-05-29T05:40:14;16.25;;;12.07;;
55330;SDS011;58851;42.984;20.336;2023-05-29T05:42:40;14.43;;;11.55;;
55330;SDS011;58851;42.984;20.336;2023-05-29T05:45:06;23.40;;;11.20;;
55330;SDS011;58851;42.984;20.336;2023-05-29T05:47:32;17.92;;;12.32;;
55330;SDS011;58851;42.984;20.336;2023-05-29T05:49:58;17.58;;;13.63;;
55330;SDS011;58851;42.984;20.336;2023-05-29T05:52:24;16.23;;;11.98;;
55330;SDS011;58851;42.984;20.336;2023-05-29T05:54:51;18.45;;;12.90;;
55330;SDS011;58851;42.984;20.336;2023-05-29T05:57:18;17.85;;;11.98;;
55330;SDS011;58851;42.984;20.336;2023-05-29T05:59:44;20.40;;;13.68;;
55330;SDS011;58851;42.984;20.336;2023-05-29T06:02:10;15.05;;;12.93;;
55330;SDS011;58851;42.984;20.336;2023-05-29T06:04:36;20.45;;;13.73;;
55330;SDS011;58851;42.984;20.336;2023-05-29T06:07:02;17.50;;;13.05;;
55330;SDS011;58851;42.984;20.336;2023-05-29T06:09:27;19.13;;;13.40;;
55330;SDS011;58851;42.984;20.336;2023-05-29T06:11:54;20.83;;;13.48;;
55330;SDS011;58851;42.984;20.336;2023-05-29T06:14:20;20.80;;;15.60;;
55330;SDS011;58851;42.984;20.336;2023-05-29T06:16:45;17.00;;;11.68;;
55330;SDS011;58851;42.984;20.336;2023-05-29T06:19:12;18.15;;;12.18;;
55330;SDS011;58851;42.984;20.336;2023-05-29T06:21:39;17.33;;;12.80;;
55330;SDS011;58851;42.984;20.336;2023-05-29T06:24:05;17.92;;;12.32;;
55330;SDS011;58851;42.984;20.336;2023-05-29T06:26:31;24.77;;;13.88;;
55330;SDS011;58851;42.984;20.336;2023-05-29T06:28:57;18.05;;;13.43;;
55330;SDS011;58851;42.984;20.336;2023-05-29T06:31:23;18.27;;;12.77;;
55330;SDS011;58851;42.984;20.336;2023-05-29T06:33:49;16.98;;;13.50;;
55330;SDS011;58851;42.984;20.336;2023-05-29T06:36:15;20.13;;;14.23;;
55330;SDS011;58851;42.984;20.336;2023-05-29T06:38:45;19.15;;;13.60;;
55330;SDS011;58851;42.984;20.336;2023-05-29T06:41:12;20.52;;;13.38;;
55330;SDS011;58851;42.984;20.336;2023-05-29T06:43:38;21.83;;;16.95;;
55330;SDS011;58851;42.984;20.336;2023-05-29T06:46:04;22.13;;;14.82;;
55330;SDS011;58851;42.984;20.336;2023-05-29T06:48:33;20.52;;;13.13;;
55330;SDS011;58851;42.984;20.336;2023-05-29T06:51:00;17.02;;;12.93;;
55330;SDS011;58851;42.984;20.336;2023-05-29T06:53:26;18.33;;;12.35;;
55330;SDS011;58851;42.984;20.336;2023-05-29T06:55:52;22.40;;;14.15;;
55330;SDS011;58851;42.984;20.336;2023-05-29T06:58:18;17.17;;;11.50;;
55330;SDS011;58851;42.984;20.336;2023-05-29T07:00:44;17.42;;;12.50;;
55330;SDS011;58851;42.984;20.336;2023-05-29T07:03:10;16.50;;;12.35;;
55330;SDS011;58851;42.984;20.336;2023-05-29T07:05:35;19.48;;;11.75;;
55330;SDS011;58851;42.984;20.336;2023-05-29T07:08:02;13.52;;;10.13;;
55330;SDS011;58851;42.984;20.336;2023-05-29T07:10:28;15.38;;;9.70;;
55330;SDS011;58851;42.984;20.336;2023-05-29T07:12:53;9.88;;;8.02;;
55330;SDS011;58851;42.984;20.336;2023-05-29T07:15:20;9.25;;;7.15;;
55330;SDS011;58851;42.984;20.336;2023-05-29T07:17:45;8.68;;;7.32;;
55330;SDS011;58851;42.984;20.336;2023-05-29T07:20:11;10.75;;;5.93;;
55330;SDS011;58851;42.984;20.336;2023-05-29T07:22:40;9.48;;;7.07;;
55330;SDS011;58851;42.984;20.336;2023-05-29T07:25:05;10.32;;;6.30;;
55330;SDS011;58851;42.984;20.336;2023-05-29T07:27:32;9.80;;;6.68;;
55330;SDS011;58851;42.984;20.336;2023-05-29T07:29:57;7.25;;;5.88;;
55330;SDS011;58851;42.984;20.336;2023-05-29T07:32:23;11.07;;;6.32;;
55330;SDS011;58851;42.984;20.336;2023-05-29T07:34:49;7.70;;;6.45;;
55330;SDS011;58851;42.984;20.336;2023-05-29T07:37:15;10.18;;;7.53;;
55330;SDS011;58851;42.984;20.336;2023-05-29T07:39:43;10.43;;;8.10;;
55330;SDS011;58851;42.984;20.336;2023-05-29T07:42:09;13.98;;;9.18;;
55330;SDS011;58851;42.984;20.336;2023-05-29T07:44:35;8.63;;;6.75;;
55330;SDS011;58851;42.984;20.336;2023-05-29T07:47:01;13.63;;;7.80;;
55330;SDS011;58851;42.984;20.336;2023-05-29T07:49:27;10.90;;;8.70;;
55330;SDS011;58851;42.984;20.336;2023-05-29T07:51:52;11.18;;;8.35;;
55330;SDS011;58851;42.984;20.336;2023-05-29T07:54:18;13.13;;;7.78;;
55330;SDS011;58851;42.984;20.336;2023-05-29T07:56:45;11.23;;;8.10;;
55330;SDS011;58851;42.984;20.336;2023-05-29T07:59:12;10.57;;;8.75;;
55330;SDS011;58851;42.984;20.336;2023-05-29T08:01:38;19.17;;;9.38;;
55330;SDS011;58851;42.984;20.336;2023-05-29T08:04:04;11.70;;;8.15;;
55330;SDS011;58851;42.984;20.336;2023-05-29T08:06:30;11.50;;;8.05;;
55330;SDS011;58851;42.984;20.336;2023-05-29T08:08:59;9.88;;;7.30;;
55330;SDS011;58851;42.984;20.336;2023-05-29T08:11:25;10.98;;;6.70;;
55330;SDS011;58851;42.984;20.336;2023-05-29T08:13:51;9.98;;;7.57;;
55330;SDS011;58851;42.984;20.336;2023-05-29T08:16:17;10.10;;;6.75;;
55330;SDS011;58851;42.984;20.336;2023-05-29T08:18:42;10.55;;;7.20;;
55330;SDS011;58851;42.984;20.336;2023-05-29T08:21:08;9.23;;;6.55;;
55330;SDS011;58851;42.984;20.336;2023-05-29T08:23:34;19.13;;;8.23;;
55330;SDS011;58851;42.984;20.336;2023-05-29T08:26:00;9.90;;;7.00;;
55330;SDS011;58851;42.984;20.336;2023-05-29T08:28:28;10.27;;;7.00;;
55330;SDS011;58851;42.984;20.336;2023-05-29T08:30:53;10.95;;;6.35;;
55330;SDS011;58851;42.984;20.336;2023-05-29T08:33:19;13.68;;;6.10;;
55330;SDS011;58851;42.984;20.336;2023-05-29T08:35:45;10.43;;;6.22;;
55330;SDS011;58851;42.984;20.336;2023-05-29T08:38:11;11.10;;;6.60;;
55330;SDS011;58851;42.984;20.336;2023-05-29T08:40:37;10.35;;;6.53;;
55330;SDS011;58851;42.984;20.336;2023-05-29T08:43:06;9.65;;;6.20;;
55330;SDS011;58851;42.984;20.336;2023-05-29T08:45:52;9.88;;;5.95;;
55330;SDS011;58851;42.984;20.336;2023-05-29T08:48:23;9.75;;;6.97;;
55330;SDS011;58851;42.984;20.336;2023-05-29T08:50:50;9.10;;;6.63;;
55330;SDS011;58851;42.984;20.336;2023-05-29T08:53:19;11.30;;;6.85;;
55330;SDS011;58851;42.984;20.336;2023-05-29T08:55:47;9.00;;;7.00;;
55330;SDS011;58851;42.984;20.336;2023-05-29T08:58:16;10.80;;;7.20;;
55330;SDS011;58851;42.984;20.336;2023-05-29T09:00:43;10.52;;;7.40;;
55330;SDS011;58851;42.984;20.336;2023-05-29T09:03:11;10.25;;;6.00;;
55330;SDS011;58851;42.984;20.336;2023-05-29T09:05:38;11.57;;;5.13;;
55330;SDS011;58851;42.984;20.336;2023-05-29T09:08:08;13.95;;;7.72;;
55330;SDS011;58851;42.984;20.336;2023-05-29T09:10:37;9.30;;;6.18;;
55330;SDS011;58851;42.984;20.336;2023-05-29T09:13:06;7.90;;;5.50;;
55330;SDS011;58851;42.984;20.336;2023-05-29T09:15:34;7.95;;;6.15;;
55330;SDS011;58851;42.984;20.336;2023-05-29T09:18:00;7.32;;;4.72;;
55330;SDS011;58851;42.984;20.336;2023-05-29T09:20:26;6.28;;;5.15;;
55330;SDS011;58851;42.984;20.336;2023-05-29T09:25:22;9.38;;;6.13;;
55330;SDS011;58851;42.984;20.336;2023-05-29T09:28:03;7.65;;;4.15;;
55330;SDS011;58851;42.984;20.336;2023-05-29T09:33:12;5.95;;;4.25;;
55330;SDS011;58851;42.984;20.336;2023-05-29T09:35:45;7.57;;;4.13;;
55330;SDS011;58851;42.984;20.336;2023-05-29T09:40:40;9.90;;;4.82;;
55330;SDS011;58851;42.984;20.336;2023-05-29T09:43:11;6.38;;;4.18;;
55330;SDS011;58851;42.984;20.336;2023-05-29T09:45:40;12.10;;;8.10;;
55330;SDS011;58851;42.984;20.336;2023-05-29T09:48:10;14.20;;;5.22;;
55330;SDS011;58851;42.984;20.336;2023-05-29T09:50:41;11.43;;;4.30;;
55330;SDS011;58851;42.984;20.336;2023-05-29T09:55:52;9.55;;;5.55;;
55330;SDS011;58851;42.984;20.336;2023-05-29T09:58:20;7.72;;;4.82;;
55330;SDS011;58851;42.984;20.336;2023-05-29T10:00:49;8.20;;;5.20;;
55330;SDS011;58851;42.984;20.336;2023-05-29T10:03:19;8.48;;;6.32;;
55330;SDS011;58851;42.984;20.336;2023-05-29T10:05:47;8.27;;;5.22;;
55330;SDS011;58851;42.984;20.336;2023-05-29T10:08:19;8.60;;;5.32;;
55330;SDS011;58851;42.984;20.336;2023-05-29T10:10:46;6.35;;;4.72;;
55330;SDS011;58851;42.984;20.336;2023-05-29T10:13:19;6.07;;;4.07;;
55330;SDS011;58851;42.984;20.336;2023-05-29T10:15:48;10.45;;;5.93;;
55330;SDS011;58851;42.984;20.336;2023-05-29T10:18:20;9.52;;;5.50;;
55330;SDS011;58851;42.984;20.336;2023-05-29T10:20:51;9.35;;;5.18;;
55330;SDS011;58851;42.984;20.336;2023-05-29T10:23:21;10.10;;;6.57;;
55330;SDS011;58851;42.984;20.336;2023-05-29T10:25:52;12.23;;;5.03;;
55330;SDS011;58851;42.984;20.336;2023-05-29T10:28:22;9.00;;;5.43;;
55330;SDS011;58851;42.984;20.336;2023-05-29T10:30:57;13.25;;;7.90;;
55330;SDS011;58851;42.984;20.336;2023-05-29T10:40:08;11.75;;;5.82;;
55330;SDS011;58851;42.984;20.336;2023-05-29T10:45:04;6.55;;;4.97;;
55330;SDS011;58851;42.984;20.336;2023-05-29T10:47:30;9.40;;;5.03;;
55330;SDS011;58851;42.984;20.336;2023-05-29T10:49:59;14.13;;;6.13;;
55330;SDS011;58851;42.984;20.336;2023-05-29T10:52:31;7.85;;;6.20;;
55330;SDS011;58851;42.984;20.336;2023-05-29T10:54:58;10.02;;;5.40;;
55330;SDS011;58851;42.984;20.336;2023-05-29T10:57:25;8.10;;;4.40;;
55330;SDS011;58851;42.984;20.336;2023-05-29T11:00:02;9.48;;;5.65;;
55330;SDS011;58851;42.984;20.336;2023-05-29T11:02:31;12.60;;;7.50;;
55330;SDS011;58851;42.984;20.336;2023-05-29T11:05:04;7.13;;;4.93;;
55330;SDS011;58851;42.984;20.336;2023-05-29T11:07:34;7.53;;;5.97;;
55330;SDS011;58851;42.984;20.336;2023-05-29T11:10:11;7.70;;;4.88;;
55330;SDS011;58851;42.984;20.336;2023-05-29T11:13:00;7.60;;;4.65;;
55330;SDS011;58851;42.984;20.336;2023-05-29T11:15:29;8.43;;;5.07;;
55330;SDS011;58851;42.984;20.336;2023-05-29T11:17:55;7.43;;;4.88;;
55330;SDS011;58851;42.984;20.336;2023-05-29T11:25:47;9.20;;;4.93;;
55330;SDS011;58851;42.984;20.336;2023-05-29T11:28:17;7.85;;;4.50;;
55330;SDS011;58851;42.984;20.336;2023-05-29T11:30:46;10.55;;;4.57;;
55330;SDS011;58851;42.984;20.336;2023-05-29T11:33:19;7.10;;;4.43;;
55330;SDS011;58851;42.984;20.336;2023-05-29T11:35:55;8.10;;;4.45;;
55330;SDS011;58851;42.984;20.336;2023-05-29T11:38:23;10.50;;;4.55;;
55330;SDS011;58851;42.984;20.336;2023-05-29T11:40:50;13.52;;;4.60;;
55330;SDS011;58851;42.984;20.336;2023-05-29T11:43:17;8.57;;;4.00;;
55330;SDS011;58851;42.984;20.336;2023-05-29T11:45:42;7.50;;;4.38;;
55330;SDS011;58851;42.984;20.336;2023-05-29T11:48:08;7.45;;;4.53;;
55330;SDS011;58851;42.984;20.336;2023-05-29T11:50:35;9.05;;;4.13;;
55330;SDS011;58851;42.984;20.336;2023-05-29T11:53:01;7.85;;;4.18;;
55330;SDS011;58851;42.984;20.336;2023-05-29T11:55:27;6.60;;;3.75;;
55330;SDS011;58851;42.984;20.336;2023-05-29T11:58:00;10.23;;;5.90;;
55330;SDS011;58851;42.984;20.336;2023-05-29T12:00:47;9.65;;;4.32;;
55330;SDS011;58851;42.984;20.336;2023-05-29T12:03:15;9.60;;;4.32;;
55330;SDS011;58851;42.984;20.336;2023-05-29T12:05:45;6.18;;;3.60;;
55330;SDS011;58851;42.984;20.336;2023-05-29T12:08:13;7.30;;;4.35;;
55330;SDS011;58851;42.984;20.336;2023-05-29T12:10:46;5.43;;;3.92;;
55330;SDS011;58851;42.984;20.336;2023-05-29T12:13:13;7.35;;;4.50;;
55330;SDS011;58851;42.984;20.336;2023-05-29T12:15:42;6.85;;;3.60;;
55330;SDS011;58851;42.984;20.336;2023-05-29T12:18:09;6.07;;;4.13;;
55330;SDS011;58851;42.984;20.336;2023-05-29T12:20:35;9.60;;;4.60;;
55330;SDS011;58851;42.984;20.336;2023-05-29T12:23:01;6.97;;;4.45;;
55330;SDS011;58851;42.984;20.336;2023-05-29T12:25:27;12.32;;;5.57;;
55330;SDS011;58851;42.984;20.336;2023-05-29T12:27:55;9.73;;;4.68;;
55330;SDS011;58851;42.984;20.336;2023-05-29T12:30:23;8.30;;;5.07;;
55330;SDS011;58851;42.984;20.336;2023-05-29T12:32:50;7.38;;;3.60;;
55330;SDS011;58851;42.984;20.336;2023-05-29T12:35:18;12.52;;;5.75;;
55330;SDS011;58851;42.984;20.336;2023-05-29T12:37:57;26.17;;;8.02;;
55330;SDS011;58851;42.984;20.336;2023-05-29T12:40:30;11.85;;;6.82;;
55330;SDS011;58851;42.984;20.336;2023-05-29T12:43:03;7.50;;;4.90;;
55330;SDS011;58851;42.984;20.336;2023-05-29T12:45:32;13.75;;;5.72;;
55330;SDS011;58851;42.984;20.336;2023-05-29T12:48:02;16.38;;;5.75;;
55330;SDS011;58851;42.984;20.336;2023-05-29T12:50:29;15.80;;;5.80;;
55330;SDS011;58851;42.984;20.336;2023-05-29T12:53:04;18.42;;;7.45;;
55330;SDS011;58851;42.984;20.336;2023-05-29T12:55:37;13.85;;;8.80;;
55330;SDS011;58851;42.984;20.336;2023-05-29T12:58:05;149.05;;;105.55;;
55330;SDS011;58851;42.984;20.336;2023-05-29T13:00:35;211.38;;;136.32;;
55330;SDS011;58851;42.984;20.336;2023-05-29T13:03:03;32.90;;;24.48;;
55330;SDS011;58851;42.984;20.336;2023-05-29T13:05:29;17.58;;;12.63;;
55330;SDS011;58851;42.984;20.336;2023-05-29T13:07:56;18.00;;;13.15;;
55330;SDS011;58851;42.984;20.336;2023-05-29T13:10:23;10.52;;;7.50;;
55330;SDS011;58851;42.984;20.336;2023-05-29T13:12:50;12.27;;;7.75;;
55330;SDS011;58851;42.984;20.336;2023-05-29T13:15:20;7.90;;;5.75;;
55330;SDS011;58851;42.984;20.336;2023-05-29T13:17:47;11.07;;;6.70;;
55330;SDS011;58851;42.984;20.336;2023-05-29T13:20:13;7.82;;;4.05;;
55330;SDS011;58851;42.984;20.336;2023-05-29T13:22:39;8.38;;;5.20;;
55330;SDS011;58851;42.984;20.336;2023-05-29T13:25:06;10.45;;;6.15;;
55330;SDS011;58851;42.984;20.336;2023-05-29T13:27:34;6.68;;;5.10;;
55330;SDS011;58851;42.984;20.336;2023-05-29T13:30:01;9.05;;;6.10;;
55330;SDS011;58851;42.984;20.336;2023-05-29T13:32:27;17.50;;;13.43;;
55330;SDS011;58851;42.984;20.336;2023-05-29T13:34:53;18.30;;;12.45;;
55330;SDS011;58851;42.984;20.336;2023-05-29T13:37:19;16.30;;;11.35;;
55330;SDS011;58851;42.984;20.336;2023-05-29T13:39:45;13.70;;;7.97;;
55330;SDS011;58851;42.984;20.336;2023-05-29T13:42:11;17.25;;;10.30;;
55330;SDS011;58851;42.984;20.336;2023-05-29T13:44:37;8.38;;;6.20;;
55330;SDS011;58851;42.984;20.336;2023-05-29T13:47:05;12.32;;;6.78;;
55330;SDS011;58851;42.984;20.336;2023-05-29T13:49:32;9.40;;;5.10;;
55330;SDS011;58851;42.984;20.336;2023-05-29T13:52:04;7.32;;;5.40;;
55330;SDS011;58851;42.984;20.336;2023-05-29T13:54:30;9.25;;;5.43;;
55330;SDS011;58851;42.984;20.336;2023-05-29T13:57:00;6.88;;;5.00;;
55330;SDS011;58851;42.984;20.336;2023-05-29T13:59:28;9.27;;;6.18;;
55330;SDS011;58851;42.984;20.336;2023-05-29T14:01:54;9.90;;;5.25;;
55330;SDS011;58851;42.984;20.336;2023-05-29T14:04:20;8.38;;;4.15;;
55330;SDS011;58851;42.984;20.336;2023-05-29T14:06:46;8.18;;;5.32;;
55330;SDS011;58851;42.984;20.336;2023-05-29T14:09:12;16.25;;;8.75;;
55330;SDS011;58851;42.984;20.336;2023-05-29T14:11:38;10.15;;;5.65;;
55330;SDS011;58851;42.984;20.336;2023-05-29T14:14:04;14.15;;;7.65;;
55330;SDS011;58851;42.984;20.336;2023-05-29T14:16:31;10.50;;;8.00;;
55330;SDS011;58851;42.984;20.336;2023-05-29T14:18:58;5.70;;;3.60;;
55330;SDS011;58851;42.984;20.336;2023-05-29T14:21:24;8.30;;;4.95;;
55330;SDS011;58851;42.984;20.336;2023-05-29T14:23:50;6.63;;;4.28;;
55330;SDS011;58851;42.984;20.336;2023-05-29T14:26:16;4.95;;;3.55;;
55330;SDS011;58851;42.984;20.336;2023-05-29T14:28:42;5.78;;;2.90;;
55330;SDS011;58851;42.984;20.336;2023-05-29T14:31:07;10.00;;;4.50;;
55330;SDS011;58851;42.984;20.336;2023-05-29T14:33:33;6.93;;;4.00;;
55330;SDS011;58851;42.984;20.336;2023-05-29T14:36:00;5.60;;;4.28;;
55330;SDS011;58851;42.984;20.336;2023-05-29T14:38:26;5.05;;;3.03;;
55330;SDS011;58851;42.984;20.336;2023-05-29T14:40:52;6.15;;;4.15;;
55330;SDS011;58851;42.984;20.336;2023-05-29T14:43:17;8.73;;;4.38;;
55330;SDS011;58851;42.984;20.336;2023-05-29T14:45:43;6.20;;;4.95;;
55330;SDS011;58851;42.984;20.336;2023-05-29T14:48:09;7.35;;;4.90;;
55330;SDS011;58851;42.984;20.336;2023-05-29T14:50:36;7.80;;;4.35;;
55330;SDS011;58851;42.984;20.336;2023-05-29T14:53:02;6.43;;;4.70;;
55330;SDS011;58851;42.984;20.336;2023-05-29T14:55:29;8.43;;;4.57;;